TimePDT,TemperatureF,Dew PointF,Humidity,Sea Level PressureIn,VisibilityMPH,Wind Direction,Wind SpeedMPH,Gust SpeedMPH,PrecipitationIn,Events,Conditions,WindDirDegrees,DateUTC
12:55 AM,56.5,54.1,92,29.96,10.0,Calm,Calm,-,N/A,,Clear,0,2012-10-26 07:55:00
1:55 AM,55.8,55.0,97,29.96,10.0,Calm,Calm,-,N/A,,Clear,0,2012-10-26 08:55:00
2:55 AM,54.1,54.0,99,29.95,10.0,Calm,Calm,-,N/A,,Clear,0,2012-10-26 09:55:00
3:55 AM,53.1,52.2,97,29.95,10.0,NNW,3.5,-,N/A,,Clear,330,2012-10-26 10:55:00
4:55 AM,56.3,50.2,80,29.95,10.0,North,6.9,-,N/A,,Clear,350,2012-10-26 11:55:00
5:55 AM,61.9,39.7,44,29.96,10.0,North,6.9,-,N/A,,Clear,360,2012-10-26 12:55:00
6:55 AM,61.3,37.6,41,29.98,10.0,North,5.8,-,N/A,,Clear,350,2012-10-26 13:55:00
7:55 AM,63.3,40.1,43,30.00,10.0,NNW,5.8,-,N/A,,Clear,330,2012-10-26 14:55:00
8:55 AM,75.0,27.9,18,30.02,10.0,NE,10.4,-,N/A,,Clear,50,2012-10-26 15:55:00
9:55 AM,79.2,25.0,14,30.01,10.0,ENE,17.3,24.2,N/A,,Clear,60,2012-10-26 16:55:00
10:55 AM,81.1,24.8,13,30.01,10.0,ENE,19.6,25.3,N/A,,Clear,60,2012-10-26 17:55:00
11:55 AM,83.7,24.4,11,30.00,10.0,ENE,13.8,23.0,N/A,,Clear,60,2012-10-26 18:55:00
12:55 PM,85.3,24.3,11,29.97,10.0,NE,10.4,-,N/A,,Clear,50,2012-10-26 19:55:00
1:55 PM,86.4,24.1,10,29.94,10.0,NE,12.7,-,N/A,,Clear,40,2012-10-26 20:55:00
2:55 PM,86.7,22.5,10,29.93,10.0,ENE,9.2,-,N/A,,Clear,70,2012-10-26 21:55:00
3:55 PM,86.9,22.1,9,29.91,10.0,East,11.5,-,N/A,,Clear,80,2012-10-26 22:55:00
4:55 PM,85.8,21.2,9,29.91,10.0,ENE,10.4,-,N/A,,Clear,70,2012-10-26 23:55:00
5:55 PM,82.4,21.6,11,29.91,10.0,ENE,6.9,-,N/A,,Clear,70,2012-10-27 00:55:00
6:55 PM,79.7,21.2,11,29.92,10.0,East,6.9,-,N/A,,Clear,90,2012-10-27 01:55:00
7:55 PM,74.3,23.2,15,29.92,10.0,Calm,Calm,-,N/A,,Clear,0,2012-10-27 02:55:00
8:55 PM,69.6,28.2,21,29.93,10.0,Calm,Calm,-,N/A,,Clear,0,2012-10-27 03:55:00
9:55 PM,65.8,29.3,25,29.93,10.0,NE,6.9,-,N/A,,Clear,50,2012-10-27 04:55:00
10:55 PM,71.2,16.5,12,29.93,10.0,NE,8.1,-,N/A,,Clear,50,2012-10-27 05:55:00
11:55 PM,70.0,13.5,11,29.91,10.0,NE,8.1,-,N/A,,Clear,40,2012-10-27 06:55:00